Irene, Texas
Current Conditions -  °F | °C
As of 9:35 AM on Saturday 22 Nov 2014 (Local Time) from KINJ Reporting Station
Haze Haze  
Wind Chill: 62°   Ceiling: 300
Heat Index: 62°   Visibility: 2mi
Dew Point: 59°   Wind: 20mph
Humidity: 91%   Direction: 140°SE
Pressure: 30.02"   Gusts: 24mph
Location:  31.99°N, 96.87°W
Report Text: KINJ 221535Z AUTO 14017G21KT 2SM BR OVC003 17/15 A3002 RMK AO2 LTG DSNT N S AND W T01650151
Loading
Personal Weather Stations






























Interactive Weather Map New forecast layout! Learn more

10-Day Weather Forecast

Advertisements
Track Severe Weather on mobile